createdAt,value
2018-07-13T00:04:51.146Z,100212.24
2018-07-13T00:09:54.650Z,100216.58
2018-07-13T00:15:08.457Z,100221.74
2018-07-13T00:20:11.918Z,100217.14
2018-07-13T00:25:15.458Z,100221.76
2018-07-13T00:30:19.009Z,100220.69
2018-07-13T00:35:22.513Z,100223.41
2018-07-13T00:40:25.978Z,100223.69
2018-07-13T00:45:29.443Z,100227.47
2018-07-13T00:50:33.002Z,100239.70
2018-07-13T00:55:36.631Z,100234.83
2018-07-13T01:00:40.098Z,100236.45
2018-07-13T01:05:43.846Z,100235.38
2018-07-13T01:10:47.869Z,100228.30
2018-07-13T01:15:51.323Z,100227.75
2018-07-13T01:20:54.837Z,100227.75
2018-07-13T01:25:58.312Z,100229.11
2018-07-13T01:31:01.774Z,100217.45
2018-07-13T01:36:05.249Z,100221.25
2018-07-13T01:41:08.986Z,100219.09
2018-07-13T01:46:12.408Z,100215.56
2018-07-13T01:51:15.861Z,100214.46
2018-07-13T01:56:19.285Z,100229.66
2018-07-13T02:01:22.832Z,100234.82
2018-07-13T02:06:26.381Z,100241.89
2018-07-13T02:11:30.108Z,100243.51
2018-07-13T02:16:33.640Z,100246.80
2018-07-13T02:21:37.065Z,100252.22
2018-07-13T02:26:40.526Z,100255.45
2018-07-13T02:31:43.982Z,100262.81
2018-07-13T02:36:47.486Z,100263.33
2018-07-13T02:41:51.578Z,100267.16
2018-07-13T02:46:55.614Z,100272.59
2018-07-13T02:51:59.123Z,100267.16
2018-07-13T02:57:02.754Z,100272.03
2018-07-13T03:02:06.533Z,100284.52
2018-07-13T03:07:10.112Z,100283.42
2018-07-13T03:12:13.574Z,100290.75
2018-07-13T03:17:17.042Z,100291.30
2018-07-13T03:22:20.486Z,100299.18
2018-07-13T03:27:24.060Z,100302.16
2018-07-13T03:32:27.758Z,100307.59
2018-07-13T03:37:31.202Z,100313.27
2018-07-13T03:42:34.682Z,100323.05
2018-07-13T03:47:38.190Z,100321.71
2018-07-13T03:52:41.630Z,100330.92
2018-07-13T03:57:45.115Z,100335.56
2018-07-13T04:02:49.258Z,100342.85
2018-07-13T04:07:52.919Z,100340.14
2018-07-13T04:12:56.365Z,100343.13
2018-07-13T04:17:59.961Z,100354.81
2018-07-13T04:23:03.518Z,100352.91
2018-07-13T04:28:07.345Z,100351.84
2018-07-13T04:33:10.805Z,100351.30
2018-07-13T04:38:14.282Z,100349.94
2018-07-13T04:43:17.891Z,100358.34
2018-07-13T04:48:21.507Z,100355.34
2018-07-13T04:53:24.998Z,100367.55
2018-07-13T04:58:28.453Z,100365.31
2018-07-13T05:03:31.893Z,100365.02
2018-07-13T05:08:35.328Z,100358.20
2018-07-13T05:13:38.829Z,100364.95
2018-07-13T05:18:42.287Z,100353.55
2018-07-13T05:23:45.725Z,100365.20
2018-07-13T05:28:49.330Z,100366.27
2018-07-13T05:33:52.768Z,100364.36
2018-07-13T05:38:56.228Z,100368.67
2018-07-13T05:43:59.929Z,100372.98
2018-07-13T05:49:03.369Z,100377.58
2018-07-13T05:54:06.835Z,100377.34
2018-07-13T05:59:10.380Z,100379.66
2018-07-13T06:04:13.925Z,100383.99
2018-07-13T06:09:17.440Z,100382.67
2018-07-13T06:14:20.860Z,100392.48
2018-07-13T06:19:24.388Z,100395.23
2018-07-13T06:24:27.821Z,100398.47
2018-07-13T06:29:31.414Z,100396.57
2018-07-13T06:34:34.915Z,100393.34
2018-07-13T06:39:38.535Z,100394.70
2018-07-13T06:44:42.188Z,100397.38
2018-07-13T06:49:45.627Z,100396.84
2018-07-13T06:54:49.592Z,100395.00
2018-07-13T06:59:53.029Z,100401.45
2018-07-13T07:05:11.766Z,100402.25
2018-07-13T07:10:15.254Z,100407.16
2018-07-13T07:15:18.698Z,100410.70
2018-07-13T07:20:22.224Z,100412.61
2018-07-13T07:25:25.641Z,100407.42
2018-07-13T07:30:29.082Z,100413.95
2018-07-13T07:35:32.539Z,100424.27
2018-07-13T07:40:35.982Z,100425.36
2018-07-13T07:45:39.487Z,100423.98
2018-07-13T07:50:43.058Z,100416.96
2018-07-13T07:55:46.519Z,100419.42
2018-07-13T08:00:50.069Z,100417.80
2018-07-13T08:05:53.575Z,100418.31
2018-07-13T08:10:57.078Z,100418.59
2018-07-13T08:16:01.042Z,100416.98
2018-07-13T08:21:04.588Z,100414.02
2018-07-13T08:26:08.401Z,100413.46
2018-07-13T08:31:12.035Z,100408.05
2018-07-13T08:36:15.657Z,100410.75
2018-07-13T08:41:19.144Z,100407.52
2018-07-13T08:46:22.622Z,100401.31
2018-07-13T08:51:26.417Z,100402.13
2018-07-13T08:56:30.099Z,100408.89
2018-07-13T09:01:33.794Z,100405.12
2018-07-13T09:06:37.555Z,100408.38
2018-07-13T09:11:41.238Z,100409.48
2018-07-13T09:16:44.706Z,100407.05
2018-07-13T09:21:48.326Z,100409.21
2018-07-13T09:26:51.837Z,100410.86
2018-07-13T09:31:55.348Z,100412.48
2018-07-13T09:36:59.074Z,100398.66
2018-07-13T09:42:02.534Z,100409.49
2018-07-13T09:47:06.191Z,100409.81
2018-07-13T09:52:09.593Z,100410.35
2018-07-13T09:57:13.426Z,100407.38
2018-07-13T10:02:16.999Z,100408.20
2018-07-13T10:07:20.782Z,100399.83
2018-07-13T10:12:24.246Z,100401.72
2018-07-13T10:17:28.117Z,100400.65
2018-07-13T10:22:32.036Z,100395.49
2018-07-13T10:27:37.330Z,100398.73
2018-07-13T10:32:42.382Z,100389.78
2018-07-13T10:37:46.171Z,100398.75
2018-07-13T10:42:49.894Z,100386.83
2018-07-13T10:47:53.603Z,100380.86
2018-07-13T10:52:57.110Z,100380.32
2018-07-13T10:58:00.602Z,100386.28
2018-07-13T11:03:04.042Z,100377.33
2018-07-13T11:08:07.695Z,100378.42
2018-07-13T11:13:11.130Z,100365.13
2018-07-13T11:18:15.107Z,100368.89
2018-07-13T11:23:42.303Z,100354.77
2018-07-13T11:28:46.050Z,100358.27
2018-07-13T11:33:49.585Z,100360.02
2018-07-13T11:38:53.053Z,100352.17
2018-07-13T11:43:56.483Z,100362.26
2018-07-13T11:48:59.917Z,100348.11
2018-07-13T11:54:03.411Z,100350.00
2018-07-13T11:59:06.942Z,100346.20
2018-07-13T12:04:12.339Z,100348.86
2018-07-13T12:09:29.030Z,100332.82
2018-07-13T12:14:33.377Z,100342.57
2018-07-13T12:19:37.032Z,100331.16
2018-07-13T12:24:43.419Z,100337.37
2018-07-13T12:29:47.122Z,100325.11
2018-07-13T12:34:50.621Z,100326.73
2018-07-13T12:39:54.145Z,100323.72
2018-07-13T12:44:57.564Z,100320.42
2018-07-13T12:50:01.096Z,100317.97
2018-07-13T12:55:04.860Z,100315.77
2018-07-13T13:00:12.449Z,100316.28
2018-07-13T13:05:15.953Z,100311.66
2018-07-13T13:10:19.532Z,100313.27
2018-07-13T13:15:23.046Z,100309.45
2018-07-13T13:20:26.432Z,100305.89
2018-07-13T13:25:30.130Z,100308.35
2018-07-13T13:30:33.758Z,100307.25
2018-07-13T13:35:37.179Z,100301.04
2018-07-13T13:40:40.813Z,100302.36
2018-07-13T13:45:44.566Z,100298.50
2018-07-13T13:50:48.308Z,100299.60
2018-07-13T13:55:51.913Z,100296.88
2018-07-13T14:00:55.747Z,100295.50
2018-07-13T14:05:59.270Z,100293.36
2018-07-13T14:11:03.465Z,100290.38
2018-07-13T14:16:07.042Z,100291.75
2018-07-13T14:21:10.590Z,100284.69
2018-07-13T14:26:14.246Z,100294.76
2018-07-13T14:31:17.688Z,100291.81
2018-07-13T14:36:21.354Z,100294.83
2018-07-13T14:41:24.976Z,100284.83
2018-07-13T14:46:28.467Z,100282.13
2018-07-13T14:51:31.957Z,100273.46
2018-07-13T14:56:35.522Z,100277.80
2018-07-13T15:01:39.055Z,100276.41
2018-07-13T15:06:42.947Z,100275.30
2018-07-13T15:11:46.440Z,100271.23
2018-07-13T15:16:50.014Z,100268.80
2018-07-13T15:21:53.590Z,100260.94
2018-07-13T15:26:57.342Z,100258.77
2018-07-13T15:32:01.238Z,100254.72
2018-07-13T15:37:04.686Z,100257.70
2018-07-13T15:42:08.378Z,100249.55
2018-07-13T15:47:11.819Z,100247.37
2018-07-13T15:52:15.306Z,100251.45
2018-07-13T15:57:18.931Z,100253.91
2018-07-13T16:02:22.402Z,100257.99
2018-07-13T16:07:25.861Z,100257.16
2018-07-13T16:12:29.369Z,100247.64
2018-07-13T16:17:33.008Z,100255.53
2018-07-13T16:22:36.550Z,100246.57
2018-07-13T16:27:40.079Z,100244.66
2018-07-13T16:32:43.513Z,100250.65
2018-07-13T16:37:47.080Z,100247.37
2018-07-13T16:42:51.243Z,100250.91
2018-07-13T16:47:54.734Z,100256.89
2018-07-13T16:52:58.217Z,100251.36
2018-07-13T16:58:01.659Z,100250.73
2018-07-13T17:03:05.336Z,100248.70
2018-07-13T17:08:08.804Z,100250.56
2018-07-13T17:13:12.534Z,100261.06
2018-07-13T17:18:16.301Z,100260.52
2018-07-13T17:23:19.843Z,100257.75
2018-07-13T17:28:23.325Z,100260.22
2018-07-13T17:33:26.829Z,100264.30
2018-07-13T17:38:30.395Z,100264.03
2018-07-13T17:43:34.246Z,100268.94
2018-07-13T17:48:38.234Z,100275.52
2018-07-13T17:53:42.023Z,100276.07
2018-07-13T17:58:45.534Z,100280.48
2018-07-13T18:03:49.806Z,100283.47
2018-07-13T18:08:53.614Z,100284.34
2018-07-13T18:13:57.248Z,100287.87
2018-07-13T18:19:00.740Z,100298.50
2018-07-13T18:24:04.379Z,100297.44
2018-07-13T18:29:07.831Z,100301.77
2018-07-13T18:34:11.405Z,100304.20
2018-07-13T18:39:14.890Z,100309.67
2018-07-13T18:44:18.483Z,100317.25
2018-07-13T18:49:22.639Z,100325.59
2018-07-13T18:54:26.244Z,100324.48
2018-07-13T18:59:30.176Z,100328.78
2018-07-13T19:04:33.730Z,100334.45
2018-07-13T19:09:37.298Z,100342.83
2018-07-13T19:14:40.846Z,100355.16
2018-07-13T19:19:44.362Z,100355.77
2018-07-13T19:24:47.910Z,100360.70
2018-07-13T19:29:51.514Z,100360.44
2018-07-13T19:34:55.793Z,100370.00
2018-07-13T19:40:00.283Z,100379.81
2018-07-13T19:45:04.086Z,100392.05
2018-07-13T19:50:08.805Z,100398.33
2018-07-13T19:55:12.470Z,100406.22
2018-07-13T20:00:16.069Z,100404.63
2018-07-13T20:05:19.877Z,100406.28
2018-07-13T20:10:23.768Z,100419.35
2018-07-13T20:15:28.303Z,100416.63
2018-07-13T20:20:32.520Z,100417.47
2018-07-13T20:25:37.086Z,100422.94
2018-07-13T20:30:41.322Z,100427.81
2018-07-13T20:35:44.948Z,100435.45
2018-07-13T20:40:48.818Z,100435.99
2018-07-13T20:45:52.865Z,100439.55
2018-07-13T20:50:57.998Z,100439.02
2018-07-13T20:56:01.807Z,100446.63
2018-07-13T21:01:05.563Z,100448.81
2018-07-13T21:06:09.693Z,100445.28
2018-07-13T21:11:13.499Z,100451.02
2018-07-13T21:16:17.399Z,100446.38
2018-07-13T21:21:22.313Z,100447.47
2018-07-13T21:26:25.788Z,100452.39
2018-07-13T21:31:29.292Z,100447.23
2018-07-13T21:36:32.891Z,100448.30
2018-07-13T21:41:36.534Z,100448.06
2018-07-13T21:46:40.252Z,100446.97
2018-07-13T21:51:43.767Z,100446.98
2018-07-13T21:56:47.530Z,100441.25
2018-07-13T22:01:51.128Z,100446.72
2018-07-13T22:06:54.575Z,100447.81
2018-07-13T22:11:58.230Z,100447.80
2018-07-13T22:17:01.851Z,100451.06
2018-07-13T22:22:05.473Z,100449.44
2018-07-13T22:27:09.033Z,100451.38
2018-07-13T22:32:12.994Z,100455.96
2018-07-13T22:37:16.635Z,100467.37
2018-07-13T22:42:20.457Z,100474.70
2018-07-13T22:47:24.211Z,100473.90
2018-07-13T22:52:27.896Z,100476.05
2018-07-13T22:57:31.374Z,100475.24
2018-07-13T23:02:35.204Z,100476.63
2018-07-13T23:07:38.696Z,100463.59
2018-07-13T23:12:42.253Z,100472.28
2018-07-13T23:17:45.766Z,100466.84
2018-07-13T23:22:49.229Z,100471.74
2018-07-13T23:27:52.810Z,100474.45
2018-07-13T23:32:56.343Z,100467.14
2018-07-13T23:37:59.913Z,100477.19
2018-07-13T23:43:03.968Z,100478.80
2018-07-13T23:48:07.438Z,100485.88
2018-07-13T23:53:11.103Z,100486.42
2018-07-13T23:58:14.594Z,100481.53
